sensor_id;sensor_type;location;lat;lon;timestamp;P1;durP1;ratioP1;P2;durP2;ratioP2
9256;SDS011;4665;51.368;6.782;2024-01-11T00:01:45;17.23;;;9.93;;
9256;SDS011;4665;51.368;6.782;2024-01-11T00:04:11;22.57;;;10.37;;
9256;SDS011;4665;51.368;6.782;2024-01-11T00:06:40;18.10;;;9.83;;
9256;SDS011;4665;51.368;6.782;2024-01-11T00:09:06;17.43;;;8.93;;
9256;SDS011;4665;51.368;6.782;2024-01-11T00:11:31;15.20;;;9.07;;
9256;SDS011;4665;51.368;6.782;2024-01-11T00:13:56;18.57;;;10.40;;
9256;SDS011;4665;51.368;6.782;2024-01-11T00:16:21;19.47;;;10.20;;
9256;SDS011;4665;51.368;6.782;2024-01-11T00:18:47;20.90;;;10.93;;
9256;SDS011;4665;51.368;6.782;2024-01-11T00:21:12;23.27;;;10.80;;
9256;SDS011;4665;51.368;6.782;2024-01-11T00:23:37;19.67;;;10.87;;
9256;SDS011;4665;51.368;6.782;2024-01-11T00:26:02;20.53;;;10.97;;
9256;SDS011;4665;51.368;6.782;2024-01-11T00:28:28;20.87;;;10.20;;
9256;SDS011;4665;51.368;6.782;2024-01-11T00:30:53;22.93;;;10.13;;
9256;SDS011;4665;51.368;6.782;2024-01-11T00:33:18;19.13;;;10.10;;
9256;SDS011;4665;51.368;6.782;2024-01-11T00:35:43;20.03;;;10.07;;
9256;SDS011;4665;51.368;6.782;2024-01-11T00:38:09;23.40;;;9.47;;
9256;SDS011;4665;51.368;6.782;2024-01-11T00:40:34;17.50;;;9.67;;
9256;SDS011;4665;51.368;6.782;2024-01-11T00:42:59;18.73;;;9.70;;
9256;SDS011;4665;51.368;6.782;2024-01-11T00:45:24;21.13;;;10.00;;
9256;SDS011;4665;51.368;6.782;2024-01-11T00:47:49;19.67;;;9.67;;
9256;SDS011;4665;51.368;6.782;2024-01-11T00:50:15;20.77;;;9.93;;
9256;SDS011;4665;51.368;6.782;2024-01-11T00:52:40;16.60;;;9.63;;
9256;SDS011;4665;51.368;6.782;2024-01-11T00:55:05;16.67;;;10.03;;
9256;SDS011;4665;51.368;6.782;2024-01-11T00:57:32;19.50;;;9.90;;
9256;SDS011;4665;51.368;6.782;2024-01-11T00:59:57;20.73;;;10.40;;
9256;SDS011;4665;51.368;6.782;2024-01-11T01:02:22;18.97;;;9.73;;
9256;SDS011;4665;51.368;6.782;2024-01-11T01:04:47;17.47;;;9.80;;
9256;SDS011;4665;51.368;6.782;2024-01-11T01:07:12;18.50;;;10.57;;
9256;SDS011;4665;51.368;6.782;2024-01-11T01:09:38;19.20;;;10.00;;
9256;SDS011;4665;51.368;6.782;2024-01-11T01:12:03;18.27;;;9.70;;
9256;SDS011;4665;51.368;6.782;2024-01-11T01:14:28;18.50;;;9.90;;
9256;SDS011;4665;51.368;6.782;2024-01-11T01:16:54;18.93;;;9.93;;
9256;SDS011;4665;51.368;6.782;2024-01-11T01:19:19;16.97;;;9.63;;
9256;SDS011;4665;51.368;6.782;2024-01-11T01:21:44;18.80;;;10.40;;
9256;SDS011;4665;51.368;6.782;2024-01-11T01:24:09;19.83;;;10.30;;
9256;SDS011;4665;51.368;6.782;2024-01-11T01:26:35;16.60;;;9.57;;
9256;SDS011;4665;51.368;6.782;2024-01-11T01:29:00;20.53;;;9.73;;
9256;SDS011;4665;51.368;6.782;2024-01-11T01:31:26;21.60;;;11.83;;
9256;SDS011;4665;51.368;6.782;2024-01-11T01:33:51;19.03;;;10.63;;
9256;SDS011;4665;51.368;6.782;2024-01-11T01:36:16;20.83;;;10.37;;
9256;SDS011;4665;51.368;6.782;2024-01-11T01:38:42;18.70;;;9.70;;
9256;SDS011;4665;51.368;6.782;2024-01-11T01:41:07;20.27;;;9.63;;
9256;SDS011;4665;51.368;6.782;2024-01-11T01:43:32;19.07;;;10.73;;
9256;SDS011;4665;51.368;6.782;2024-01-11T01:45:58;18.13;;;9.80;;
9256;SDS011;4665;51.368;6.782;2024-01-11T01:48:23;17.87;;;9.40;;
9256;SDS011;4665;51.368;6.782;2024-01-11T01:50:49;24.17;;;11.83;;
9256;SDS011;4665;51.368;6.782;2024-01-11T01:53:20;25.87;;;10.53;;
9256;SDS011;4665;51.368;6.782;2024-01-11T01:55:46;16.27;;;9.33;;
9256;SDS011;4665;51.368;6.782;2024-01-11T01:58:13;19.33;;;9.97;;
9256;SDS011;4665;51.368;6.782;2024-01-11T02:00:38;20.57;;;10.03;;
9256;SDS011;4665;51.368;6.782;2024-01-11T02:03:06;18.90;;;10.03;;
9256;SDS011;4665;51.368;6.782;2024-01-11T02:05:31;19.87;;;10.00;;
9256;SDS011;4665;51.368;6.782;2024-01-11T02:07:56;20.87;;;11.27;;
9256;SDS011;4665;51.368;6.782;2024-01-11T02:10:22;15.60;;;9.90;;
9256;SDS011;4665;51.368;6.782;2024-01-11T02:12:48;15.23;;;8.90;;
9256;SDS011;4665;51.368;6.782;2024-01-11T02:15:14;18.23;;;9.83;;
9256;SDS011;4665;51.368;6.782;2024-01-11T02:17:39;24.70;;;11.30;;
9256;SDS011;4665;51.368;6.782;2024-01-11T02:20:05;22.83;;;11.27;;
9256;SDS011;4665;51.368;6.782;2024-01-11T02:22:32;19.57;;;10.57;;
9256;SDS011;4665;51.368;6.782;2024-01-11T02:24:57;22.03;;;10.73;;
9256;SDS011;4665;51.368;6.782;2024-01-11T02:27:23;25.50;;;11.67;;
9256;SDS011;4665;51.368;6.782;2024-01-11T02:29:48;26.47;;;11.87;;
9256;SDS011;4665;51.368;6.782;2024-01-11T02:32:13;18.07;;;10.97;;
9256;SDS011;4665;51.368;6.782;2024-01-11T02:34:39;20.43;;;11.13;;
9256;SDS011;4665;51.368;6.782;2024-01-11T02:37:05;22.67;;;10.43;;
9256;SDS011;4665;51.368;6.782;2024-01-11T02:39:30;23.67;;;11.23;;
9256;SDS011;4665;51.368;6.782;2024-01-11T02:41:56;20.83;;;10.67;;
9256;SDS011;4665;51.368;6.782;2024-01-11T02:44:22;19.63;;;11.33;;
9256;SDS011;4665;51.368;6.782;2024-01-11T02:46:47;20.57;;;10.73;;
9256;SDS011;4665;51.368;6.782;2024-01-11T02:49:12;20.77;;;10.60;;
9256;SDS011;4665;51.368;6.782;2024-01-11T02:51:38;23.27;;;10.87;;
9256;SDS011;4665;51.368;6.782;2024-01-11T02:54:03;23.47;;;12.40;;
9256;SDS011;4665;51.368;6.782;2024-01-11T02:56:28;21.17;;;11.93;;
9256;SDS011;4665;51.368;6.782;2024-01-11T02:58:53;22.73;;;11.53;;
9256;SDS011;4665;51.368;6.782;2024-01-11T03:01:19;17.23;;;11.03;;
9256;SDS011;4665;51.368;6.782;2024-01-11T03:03:44;20.03;;;10.90;;
9256;SDS011;4665;51.368;6.782;2024-01-11T03:06:09;21.97;;;10.27;;
9256;SDS011;4665;51.368;6.782;2024-01-11T03:08:35;19.30;;;11.90;;
9256;SDS011;4665;51.368;6.782;2024-01-11T03:11:00;24.83;;;11.97;;
9256;SDS011;4665;51.368;6.782;2024-01-11T03:13:25;19.20;;;11.33;;
9256;SDS011;4665;51.368;6.782;2024-01-11T03:15:50;23.60;;;11.77;;
9256;SDS011;4665;51.368;6.782;2024-01-11T03:18:16;26.43;;;12.77;;
9256;SDS011;4665;51.368;6.782;2024-01-11T03:20:41;19.30;;;10.93;;
9256;SDS011;4665;51.368;6.782;2024-01-11T03:23:06;21.50;;;11.60;;
9256;SDS011;4665;51.368;6.782;2024-01-11T03:25:31;19.37;;;11.83;;
9256;SDS011;4665;51.368;6.782;2024-01-11T03:28:00;23.73;;;11.17;;
9256;SDS011;4665;51.368;6.782;2024-01-11T03:30:25;19.37;;;11.27;;
9256;SDS011;4665;51.368;6.782;2024-01-11T03:32:50;27.53;;;12.13;;
9256;SDS011;4665;51.368;6.782;2024-01-11T03:35:15;21.10;;;11.70;;
9256;SDS011;4665;51.368;6.782;2024-01-11T03:37:41;23.70;;;12.53;;
9256;SDS011;4665;51.368;6.782;2024-01-11T03:40:06;20.23;;;11.33;;
9256;SDS011;4665;51.368;6.782;2024-01-11T03:42:31;23.37;;;11.37;;
9256;SDS011;4665;51.368;6.782;2024-01-11T03:44:57;22.90;;;12.43;;
9256;SDS011;4665;51.368;6.782;2024-01-11T03:47:22;23.83;;;12.43;;
9256;SDS011;4665;51.368;6.782;2024-01-11T03:49:47;20.80;;;10.97;;
9256;SDS011;4665;51.368;6.782;2024-01-11T03:52:13;24.40;;;11.43;;
9256;SDS011;4665;51.368;6.782;2024-01-11T03:54:38;21.33;;;11.63;;
9256;SDS011;4665;51.368;6.782;2024-01-11T03:57:03;23.77;;;11.13;;
9256;SDS011;4665;51.368;6.782;2024-01-11T03:59:28;22.07;;;10.93;;
9256;SDS011;4665;51.368;6.782;2024-01-11T04:01:54;23.93;;;12.63;;
9256;SDS011;4665;51.368;6.782;2024-01-11T04:04:19;24.40;;;13.17;;
9256;SDS011;4665;51.368;6.782;2024-01-11T04:12:35;24.83;;;11.53;;
9256;SDS011;4665;51.368;6.782;2024-01-11T04:15:00;24.53;;;12.60;;
9256;SDS011;4665;51.368;6.782;2024-01-11T04:17:25;21.70;;;11.20;;
9256;SDS011;4665;51.368;6.782;2024-01-11T04:19:51;24.57;;;12.13;;
9256;SDS011;4665;51.368;6.782;2024-01-11T04:22:16;22.53;;;11.93;;
9256;SDS011;4665;51.368;6.782;2024-01-11T04:24:43;23.20;;;11.23;;
9256;SDS011;4665;51.368;6.782;2024-01-11T04:27:08;27.03;;;12.97;;
9256;SDS011;4665;51.368;6.782;2024-01-11T04:29:33;21.77;;;11.40;;
9256;SDS011;4665;51.368;6.782;2024-01-11T04:31:58;22.30;;;11.73;;
9256;SDS011;4665;51.368;6.782;2024-01-11T04:34:24;20.53;;;11.77;;
9256;SDS011;4665;51.368;6.782;2024-01-11T04:36:49;26.70;;;11.67;;
9256;SDS011;4665;51.368;6.782;2024-01-11T04:39:14;22.87;;;11.00;;
9256;SDS011;4665;51.368;6.782;2024-01-11T04:41:40;27.60;;;11.87;;
9256;SDS011;4665;51.368;6.782;2024-01-11T04:44:05;26.30;;;12.03;;
9256;SDS011;4665;51.368;6.782;2024-01-11T04:46:31;25.83;;;12.00;;
9256;SDS011;4665;51.368;6.782;2024-01-11T04:48:56;19.80;;;10.73;;
9256;SDS011;4665;51.368;6.782;2024-01-11T04:51:21;19.90;;;10.70;;
9256;SDS011;4665;51.368;6.782;2024-01-11T04:53:47;21.70;;;11.73;;
9256;SDS011;4665;51.368;6.782;2024-01-11T04:56:15;21.53;;;12.03;;
9256;SDS011;4665;51.368;6.782;2024-01-11T04:58:42;19.07;;;10.77;;
9256;SDS011;4665;51.368;6.782;2024-01-11T05:01:14;22.83;;;10.77;;
9256;SDS011;4665;51.368;6.782;2024-01-11T05:03:40;23.70;;;11.03;;
9256;SDS011;4665;51.368;6.782;2024-01-11T05:06:05;25.43;;;11.77;;
9256;SDS011;4665;51.368;6.782;2024-01-11T05:08:31;26.20;;;12.83;;
9256;SDS011;4665;51.368;6.782;2024-01-11T05:10:56;26.63;;;12.53;;
9256;SDS011;4665;51.368;6.782;2024-01-11T05:13:21;21.97;;;10.77;;
9256;SDS011;4665;51.368;6.782;2024-01-11T05:15:47;21.17;;;11.87;;
9256;SDS011;4665;51.368;6.782;2024-01-11T05:18:12;21.47;;;11.93;;
9256;SDS011;4665;51.368;6.782;2024-01-11T05:20:37;25.23;;;11.80;;
9256;SDS011;4665;51.368;6.782;2024-01-11T05:23:03;23.03;;;11.03;;
9256;SDS011;4665;51.368;6.782;2024-01-11T05:25:29;25.97;;;11.00;;
9256;SDS011;4665;51.368;6.782;2024-01-11T05:27:56;23.40;;;11.63;;
9256;SDS011;4665;51.368;6.782;2024-01-11T05:30:21;24.63;;;13.33;;
9256;SDS011;4665;51.368;6.782;2024-01-11T05:32:46;22.90;;;12.67;;
9256;SDS011;4665;51.368;6.782;2024-01-11T05:35:11;24.50;;;12.70;;
9256;SDS011;4665;51.368;6.782;2024-01-11T05:37:37;22.03;;;11.57;;
9256;SDS011;4665;51.368;6.782;2024-01-11T05:40:02;30.50;;;12.67;;
9256;SDS011;4665;51.368;6.782;2024-01-11T05:42:28;24.60;;;12.23;;
9256;SDS011;4665;51.368;6.782;2024-01-11T05:44:53;22.77;;;12.53;;
9256;SDS011;4665;51.368;6.782;2024-01-11T05:47:18;26.77;;;12.70;;
9256;SDS011;4665;51.368;6.782;2024-01-11T05:49:43;21.03;;;12.93;;
9256;SDS011;4665;51.368;6.782;2024-01-11T05:52:08;29.63;;;12.97;;
9256;SDS011;4665;51.368;6.782;2024-01-11T05:54:34;23.40;;;12.37;;
9256;SDS011;4665;51.368;6.782;2024-01-11T05:56:59;25.10;;;12.10;;
9256;SDS011;4665;51.368;6.782;2024-01-11T05:59:24;26.77;;;12.60;;
9256;SDS011;4665;51.368;6.782;2024-01-11T06:01:50;21.47;;;11.17;;
9256;SDS011;4665;51.368;6.782;2024-01-11T06:04:15;26.43;;;11.70;;
9256;SDS011;4665;51.368;6.782;2024-01-11T06:06:41;29.23;;;11.80;;
9256;SDS011;4665;51.368;6.782;2024-01-11T06:09:06;24.70;;;12.23;;
9256;SDS011;4665;51.368;6.782;2024-01-11T06:11:32;27.53;;;12.67;;
9256;SDS011;4665;51.368;6.782;2024-01-11T06:13:57;23.63;;;11.73;;
9256;SDS011;4665;51.368;6.782;2024-01-11T06:16:22;23.53;;;12.20;;
9256;SDS011;4665;51.368;6.782;2024-01-11T06:18:48;27.63;;;11.93;;
9256;SDS011;4665;51.368;6.782;2024-01-11T06:21:13;26.80;;;10.73;;
9256;SDS011;4665;51.368;6.782;2024-01-11T06:23:40;24.10;;;10.87;;
9256;SDS011;4665;51.368;6.782;2024-01-11T06:26:05;21.90;;;11.47;;
9256;SDS011;4665;51.368;6.782;2024-01-11T06:28:31;21.80;;;10.97;;
9256;SDS011;4665;51.368;6.782;2024-01-11T06:30:56;17.23;;;9.90;;
9256;SDS011;4665;51.368;6.782;2024-01-11T06:33:21;25.80;;;11.80;;
9256;SDS011;4665;51.368;6.782;2024-01-11T06:35:46;21.23;;;10.50;;
9256;SDS011;4665;51.368;6.782;2024-01-11T06:38:11;19.17;;;11.07;;
9256;SDS011;4665;51.368;6.782;2024-01-11T06:40:37;21.63;;;10.40;;
9256;SDS011;4665;51.368;6.782;2024-01-11T06:43:02;22.27;;;11.27;;
9256;SDS011;4665;51.368;6.782;2024-01-11T06:45:27;22.90;;;13.00;;
9256;SDS011;4665;51.368;6.782;2024-01-11T06:47:53;20.27;;;10.77;;
9256;SDS011;4665;51.368;6.782;2024-01-11T06:50:18;21.97;;;11.73;;
9256;SDS011;4665;51.368;6.782;2024-01-11T06:52:43;22.30;;;11.60;;
9256;SDS011;4665;51.368;6.782;2024-01-11T06:55:08;21.23;;;11.00;;
9256;SDS011;4665;51.368;6.782;2024-01-11T06:57:35;20.37;;;10.63;;
9256;SDS011;4665;51.368;6.782;2024-01-11T07:00:00;29.33;;;13.20;;
9256;SDS011;4665;51.368;6.782;2024-01-11T07:02:26;26.67;;;12.93;;
9256;SDS011;4665;51.368;6.782;2024-01-11T07:04:51;24.80;;;11.27;;
9256;SDS011;4665;51.368;6.782;2024-01-11T07:07:16;23.00;;;11.50;;
9256;SDS011;4665;51.368;6.782;2024-01-11T07:09:41;23.47;;;12.07;;
9256;SDS011;4665;51.368;6.782;2024-01-11T07:12:06;16.83;;;9.83;;
9256;SDS011;4665;51.368;6.782;2024-01-11T07:14:32;19.03;;;10.80;;
9256;SDS011;4665;51.368;6.782;2024-01-11T07:16:57;24.50;;;11.30;;
9256;SDS011;4665;51.368;6.782;2024-01-11T07:19:23;19.40;;;9.77;;
9256;SDS011;4665;51.368;6.782;2024-01-11T07:21:48;22.53;;;10.23;;
9256;SDS011;4665;51.368;6.782;2024-01-11T07:24:13;23.87;;;12.47;;
9256;SDS011;4665;51.368;6.782;2024-01-11T07:26:38;23.97;;;12.50;;
9256;SDS011;4665;51.368;6.782;2024-01-11T07:29:04;26.47;;;13.37;;
9256;SDS011;4665;51.368;6.782;2024-01-11T07:31:29;24.63;;;12.83;;
9256;SDS011;4665;51.368;6.782;2024-01-11T07:33:54;29.77;;;13.97;;
9256;SDS011;4665;51.368;6.782;2024-01-11T07:36:20;26.13;;;12.33;;
9256;SDS011;4665;51.368;6.782;2024-01-11T07:38:45;26.33;;;13.60;;
9256;SDS011;4665;51.368;6.782;2024-01-11T07:41:10;29.70;;;13.73;;
9256;SDS011;4665;51.368;6.782;2024-01-11T07:43:36;25.63;;;13.37;;
9256;SDS011;4665;51.368;6.782;2024-01-11T07:46:01;34.20;;;12.43;;
9256;SDS011;4665;51.368;6.782;2024-01-11T07:48:28;26.13;;;12.90;;
9256;SDS011;4665;51.368;6.782;2024-01-11T07:50:53;28.87;;;13.37;;
9256;SDS011;4665;51.368;6.782;2024-01-11T07:53:18;22.50;;;11.73;;
9256;SDS011;4665;51.368;6.782;2024-01-11T07:55:44;26.10;;;12.67;;
9256;SDS011;4665;51.368;6.782;2024-01-11T07:58:12;22.47;;;11.13;;
9256;SDS011;4665;51.368;6.782;2024-01-11T08:00:37;21.10;;;11.17;;
9256;SDS011;4665;51.368;6.782;2024-01-11T08:03:03;23.07;;;10.47;;
9256;SDS011;4665;51.368;6.782;2024-01-11T08:05:28;25.07;;;11.90;;
9256;SDS011;4665;51.368;6.782;2024-01-11T08:07:54;23.73;;;11.63;;
9256;SDS011;4665;51.368;6.782;2024-01-11T08:10:19;28.57;;;12.83;;
9256;SDS011;4665;51.368;6.782;2024-01-11T08:12:44;20.47;;;10.67;;
9256;SDS011;4665;51.368;6.782;2024-01-11T08:15:10;20.03;;;11.70;;
9256;SDS011;4665;51.368;6.782;2024-01-11T08:17:44;22.93;;;12.03;;
9256;SDS011;4665;51.368;6.782;2024-01-11T08:20:10;23.03;;;12.07;;
9256;SDS011;4665;51.368;6.782;2024-01-11T08:22:36;21.53;;;11.77;;
9256;SDS011;4665;51.368;6.782;2024-01-11T08:25:02;22.57;;;11.40;;
9256;SDS011;4665;51.368;6.782;2024-01-11T08:27:29;23.50;;;12.03;;
9256;SDS011;4665;51.368;6.782;2024-01-11T08:29:54;26.83;;;13.10;;
9256;SDS011;4665;51.368;6.782;2024-01-11T08:32:20;29.07;;;12.63;;
9256;SDS011;4665;51.368;6.782;2024-01-11T08:34:45;23.23;;;11.73;;
9256;SDS011;4665;51.368;6.782;2024-01-11T08:37:10;26.57;;;13.73;;
9256;SDS011;4665;51.368;6.782;2024-01-11T08:39:35;26.00;;;12.50;;
9256;SDS011;4665;51.368;6.782;2024-01-11T08:42:00;26.87;;;11.90;;
9256;SDS011;4665;51.368;6.782;2024-01-11T08:44:26;26.67;;;12.93;;
9256;SDS011;4665;51.368;6.782;2024-01-11T08:46:51;25.47;;;13.47;;
9256;SDS011;4665;51.368;6.782;2024-01-11T08:49:16;27.17;;;13.03;;
9256;SDS011;4665;51.368;6.782;2024-01-11T08:51:41;26.73;;;12.57;;
9256;SDS011;4665;51.368;6.782;2024-01-11T08:54:07;26.17;;;13.93;;
9256;SDS011;4665;51.368;6.782;2024-01-11T08:56:34;22.83;;;13.00;;
9256;SDS011;4665;51.368;6.782;2024-01-11T08:59:00;24.20;;;13.77;;
9256;SDS011;4665;51.368;6.782;2024-01-11T09:01:25;23.10;;;13.10;;
9256;SDS011;4665;51.368;6.782;2024-01-11T09:03:50;26.60;;;12.87;;
9256;SDS011;4665;51.368;6.782;2024-01-11T09:06:15;20.60;;;11.20;;
9256;SDS011;4665;51.368;6.782;2024-01-11T09:08:41;25.33;;;13.80;;
9256;SDS011;4665;51.368;6.782;2024-01-11T09:11:07;24.93;;;12.67;;
9256;SDS011;4665;51.368;6.782;2024-01-11T09:13:32;25.93;;;12.37;;
9256;SDS011;4665;51.368;6.782;2024-01-11T09:15:57;28.43;;;13.53;;
9256;SDS011;4665;51.368;6.782;2024-01-11T09:18:23;29.10;;;13.57;;
9256;SDS011;4665;51.368;6.782;2024-01-11T09:20:48;24.00;;;13.03;;
9256;SDS011;4665;51.368;6.782;2024-01-11T09:23:14;25.90;;;12.90;;
9256;SDS011;4665;51.368;6.782;2024-01-11T09:25:39;23.23;;;13.57;;
9256;SDS011;4665;51.368;6.782;2024-01-11T09:28:05;27.07;;;14.70;;
9256;SDS011;4665;51.368;6.782;2024-01-11T09:30:30;27.40;;;14.13;;
9256;SDS011;4665;51.368;6.782;2024-01-11T09:32:55;26.33;;;12.07;;
9256;SDS011;4665;51.368;6.782;2024-01-11T09:35:21;27.53;;;14.83;;
9256;SDS011;4665;51.368;6.782;2024-01-11T09:37:47;28.73;;;13.50;;
9256;SDS011;4665;51.368;6.782;2024-01-11T09:40:12;24.57;;;11.83;;
9256;SDS011;4665;51.368;6.782;2024-01-11T09:42:37;22.90;;;13.17;;
9256;SDS011;4665;51.368;6.782;2024-01-11T09:45:06;25.00;;;13.17;;
9256;SDS011;4665;51.368;6.782;2024-01-11T09:47:32;30.17;;;13.83;;
9256;SDS011;4665;51.368;6.782;2024-01-11T09:49:58;28.77;;;14.40;;
9256;SDS011;4665;51.368;6.782;2024-01-11T09:52:24;30.00;;;15.03;;
9256;SDS011;4665;51.368;6.782;2024-01-11T09:54:50;30.53;;;14.63;;
9256;SDS011;4665;51.368;6.782;2024-01-11T09:57:16;23.37;;;13.40;;
9256;SDS011;4665;51.368;6.782;2024-01-11T09:59:46;29.90;;;14.10;;
9256;SDS011;4665;51.368;6.782;2024-01-11T10:02:11;30.43;;;14.20;;
9256;SDS011;4665;51.368;6.782;2024-01-11T10:04:37;27.60;;;13.30;;
9256;SDS011;4665;51.368;6.782;2024-01-11T10:07:03;22.60;;;12.93;;
9256;SDS011;4665;51.368;6.782;2024-01-11T10:09:29;23.33;;;12.80;;
9256;SDS011;4665;51.368;6.782;2024-01-11T10:11:54;29.57;;;13.93;;
9256;SDS011;4665;51.368;6.782;2024-01-11T10:14:20;27.03;;;13.93;;
9256;SDS011;4665;51.368;6.782;2024-01-11T10:16:47;28.90;;;14.77;;
9256;SDS011;4665;51.368;6.782;2024-01-11T10:19:12;29.67;;;15.10;;
9256;SDS011;4665;51.368;6.782;2024-01-11T10:21:38;29.37;;;14.63;;
9256;SDS011;4665;51.368;6.782;2024-01-11T10:24:06;29.00;;;14.50;;
9256;SDS011;4665;51.368;6.782;2024-01-11T10:26:32;27.07;;;13.40;;
9256;SDS011;4665;51.368;6.782;2024-01-11T10:29:01;33.67;;;15.27;;
9256;SDS011;4665;51.368;6.782;2024-01-11T10:31:30;30.43;;;15.17;;
9256;SDS011;4665;51.368;6.782;2024-01-11T10:33:55;29.07;;;15.70;;
9256;SDS011;4665;51.368;6.782;2024-01-11T10:36:21;30.57;;;14.77;;
9256;SDS011;4665;51.368;6.782;2024-01-11T10:38:47;26.20;;;13.80;;
9256;SDS011;4665;51.368;6.782;2024-01-11T10:41:12;26.57;;;14.73;;
9256;SDS011;4665;51.368;6.782;2024-01-11T10:43:37;29.00;;;15.40;;
9256;SDS011;4665;51.368;6.782;2024-01-11T10:46:03;26.00;;;13.30;;
9256;SDS011;4665;51.368;6.782;2024-01-11T10:48:31;28.43;;;15.17;;
9256;SDS011;4665;51.368;6.782;2024-01-11T10:51:01;28.50;;;14.83;;
9256;SDS011;4665;51.368;6.782;2024-01-11T10:53:46;27.07;;;15.40;;
9256;SDS011;4665;51.368;6.782;2024-01-11T10:56:12;27.97;;;14.10;;
9256;SDS011;4665;51.368;6.782;2024-01-11T10:58:39;22.87;;;13.57;;
9256;SDS011;4665;51.368;6.782;2024-01-11T11:01:05;29.90;;;15.57;;
9256;SDS011;4665;51.368;6.782;2024-01-11T11:03:30;27.53;;;14.47;;
9256;SDS011;4665;51.368;6.782;2024-01-11T11:05:59;24.90;;;14.90;;
9256;SDS011;4665;51.368;6.782;2024-01-11T11:08:25;27.00;;;15.53;;
9256;SDS011;4665;51.368;6.782;2024-01-11T11:10:58;26.80;;;15.17;;
9256;SDS011;4665;51.368;6.782;2024-01-11T11:13:23;28.33;;;14.77;;
9256;SDS011;4665;51.368;6.782;2024-01-11T11:15:49;30.10;;;13.03;;
9256;SDS011;4665;51.368;6.782;2024-01-11T11:18:14;23.57;;;13.50;;
9256;SDS011;4665;51.368;6.782;2024-01-11T11:20:40;25.70;;;14.20;;
9256;SDS011;4665;51.368;6.782;2024-01-11T11:23:09;23.17;;;12.03;;
9256;SDS011;4665;51.368;6.782;2024-01-11T11:25:35;24.33;;;14.53;;
9256;SDS011;4665;51.368;6.782;2024-01-11T11:28:01;25.80;;;14.60;;
9256;SDS011;4665;51.368;6.782;2024-01-11T11:30:29;24.80;;;13.73;;
9256;SDS011;4665;51.368;6.782;2024-01-11T11:32:54;20.93;;;12.50;;
9256;SDS011;4665;51.368;6.782;2024-01-11T11:35:20;25.60;;;13.13;;
9256;SDS011;4665;51.368;6.782;2024-01-11T11:37:45;22.03;;;13.17;;
9256;SDS011;4665;51.368;6.782;2024-01-11T11:40:10;23.53;;;11.90;;
9256;SDS011;4665;51.368;6.782;2024-01-11T11:42:36;25.67;;;12.80;;
9256;SDS011;4665;51.368;6.782;2024-01-11T11:45:01;25.00;;;12.90;;
9256;SDS011;4665;51.368;6.782;2024-01-11T11:47:33;24.43;;;13.73;;
9256;SDS011;4665;51.368;6.782;2024-01-11T11:52:32;25.20;;;13.23;;
9256;SDS011;4665;51.368;6.782;2024-01-11T11:54:57;21.77;;;12.40;;
9256;SDS011;4665;51.368;6.782;2024-01-11T11:57:23;23.13;;;12.77;;
9256;SDS011;4665;51.368;6.782;2024-01-11T11:59:49;19.97;;;11.47;;
9256;SDS011;4665;51.368;6.782;2024-01-11T12:02:16;21.30;;;12.33;;
9256;SDS011;4665;51.368;6.782;2024-01-11T12:04:46;21.93;;;12.97;;
9256;SDS011;4665;51.368;6.782;2024-01-11T12:07:11;21.07;;;12.40;;
9256;SDS011;4665;51.368;6.782;2024-01-11T12:09:36;23.80;;;11.57;;
9256;SDS011;4665;51.368;6.782;2024-01-11T12:12:02;18.83;;;11.53;;
9256;SDS011;4665;51.368;6.782;2024-01-11T12:14:28;22.80;;;12.10;;
9256;SDS011;4665;51.368;6.782;2024-01-11T12:16:59;17.97;;;11.57;;
9256;SDS011;4665;51.368;6.782;2024-01-11T12:19:25;22.63;;;12.17;;
9256;SDS011;4665;51.368;6.782;2024-01-11T12:21:50;21.90;;;11.93;;
9256;SDS011;4665;51.368;6.782;2024-01-11T12:24:15;22.87;;;12.70;;
9256;SDS011;4665;51.368;6.782;2024-01-11T12:26:40;23.00;;;13.13;;
9256;SDS011;4665;51.368;6.782;2024-01-11T12:29:06;24.10;;;13.17;;
9256;SDS011;4665;51.368;6.782;2024-01-11T12:31:31;25.67;;;12.87;;
9256;SDS011;4665;51.368;6.782;2024-01-11T12:33:57;25.67;;;12.33;;
9256;SDS011;4665;51.368;6.782;2024-01-11T12:36:22;23.07;;;13.20;;
9256;SDS011;4665;51.368;6.782;2024-01-11T12:38:48;20.83;;;11.70;;
9256;SDS011;4665;51.368;6.782;2024-01-11T12:41:13;22.80;;;11.93;;
9256;SDS011;4665;51.368;6.782;2024-01-11T12:43:39;20.37;;;12.10;;
9256;SDS011;4665;51.368;6.782;2024-01-11T12:46:04;20.67;;;11.43;;
9256;SDS011;4665;51.368;6.782;2024-01-11T12:48:29;18.80;;;11.17;;
9256;SDS011;4665;51.368;6.782;2024-01-11T12:50:55;18.40;;;11.10;;
9256;SDS011;4665;51.368;6.782;2024-01-11T12:53:20;17.77;;;10.63;;
9256;SDS011;4665;51.368;6.782;2024-01-11T12:55:46;19.70;;;11.23;;
9256;SDS011;4665;51.368;6.782;2024-01-11T12:58:11;18.60;;;11.07;;
9256;SDS011;4665;51.368;6.782;2024-01-11T13:00:37;22.57;;;12.50;;
9256;SDS011;4665;51.368;6.782;2024-01-11T13:03:06;17.90;;;11.50;;
9256;SDS011;4665;51.368;6.782;2024-01-11T13:05:32;20.90;;;10.83;;
9256;SDS011;4665;51.368;6.782;2024-01-11T13:08:00;22.83;;;11.50;;
9256;SDS011;4665;51.368;6.782;2024-01-11T13:10:26;22.57;;;12.00;;
9256;SDS011;4665;51.368;6.782;2024-01-11T13:12:53;23.57;;;11.73;;
9256;SDS011;4665;51.368;6.782;2024-01-11T13:15:24;24.53;;;12.27;;
9256;SDS011;4665;51.368;6.782;2024-01-11T13:17:54;19.50;;;11.40;;
9256;SDS011;4665;51.368;6.782;2024-01-11T13:20:25;20.23;;;11.57;;
9256;SDS011;4665;51.368;6.782;2024-01-11T13:23:12;18.10;;;11.13;;
9256;SDS011;4665;51.368;6.782;2024-01-11T13:25:39;16.93;;;9.80;;
9256;SDS011;4665;51.368;6.782;2024-01-11T13:28:04;16.60;;;10.03;;
9256;SDS011;4665;51.368;6.782;2024-01-11T13:30:29;22.43;;;11.00;;
9256;SDS011;4665;51.368;6.782;2024-01-11T13:32:55;20.27;;;11.17;;
9256;SDS011;4665;51.368;6.782;2024-01-11T13:35:20;17.73;;;11.20;;
9256;SDS011;4665;51.368;6.782;2024-01-11T13:37:45;19.37;;;10.87;;
9256;SDS011;4665;51.368;6.782;2024-01-11T13:40:10;18.97;;;11.03;;
9256;SDS011;4665;51.368;6.782;2024-01-11T13:42:38;17.50;;;10.80;;
9256;SDS011;4665;51.368;6.782;2024-01-11T13:45:03;14.90;;;10.27;;
9256;SDS011;4665;51.368;6.782;2024-01-11T13:47:28;18.47;;;11.10;;
9256;SDS011;4665;51.368;6.782;2024-01-11T13:49:53;18.53;;;10.00;;
9256;SDS011;4665;51.368;6.782;2024-01-11T13:52:18;17.20;;;10.50;;
9256;SDS011;4665;51.368;6.782;2024-01-11T13:54:44;19.80;;;10.60;;
9256;SDS011;4665;51.368;6.782;2024-01-11T13:57:09;17.10;;;9.87;;
9256;SDS011;4665;51.368;6.782;2024-01-11T13:59:34;17.10;;;9.40;;
9256;SDS011;4665;51.368;6.782;2024-01-11T14:02:00;18.57;;;10.17;;
9256;SDS011;4665;51.368;6.782;2024-01-11T14:04:25;20.27;;;9.50;;
9256;SDS011;4665;51.368;6.782;2024-01-11T14:06:51;13.80;;;9.07;;
9256;SDS011;4665;51.368;6.782;2024-01-11T14:09:17;18.37;;;9.03;;
9256;SDS011;4665;51.368;6.782;2024-01-11T14:11:42;19.40;;;10.17;;
9256;SDS011;4665;51.368;6.782;2024-01-11T14:14:08;16.00;;;8.37;;
9256;SDS011;4665;51.368;6.782;2024-01-11T14:16:33;19.60;;;9.33;;
9256;SDS011;4665;51.368;6.782;2024-01-11T14:18:58;18.27;;;9.90;;
9256;SDS011;4665;51.368;6.782;2024-01-11T14:21:24;16.63;;;9.60;;
9256;SDS011;4665;51.368;6.782;2024-01-11T14:23:49;19.33;;;8.80;;
9256;SDS011;4665;51.368;6.782;2024-01-11T14:26:16;18.47;;;8.33;;
9256;SDS011;4665;51.368;6.782;2024-01-11T14:28:41;14.70;;;8.40;;
9256;SDS011;4665;51.368;6.782;2024-01-11T14:31:07;12.70;;;8.00;;
9256;SDS011;4665;51.368;6.782;2024-01-11T14:33:32;12.73;;;7.93;;
9256;SDS011;4665;51.368;6.782;2024-01-11T14:35:58;12.23;;;7.77;;
9256;SDS011;4665;51.368;6.782;2024-01-11T14:38:23;12.80;;;7.20;;
9256;SDS011;4665;51.368;6.782;2024-01-11T14:40:49;17.57;;;8.13;;
9256;SDS011;4665;51.368;6.782;2024-01-11T14:43:14;14.60;;;8.20;;
9256;SDS011;4665;51.368;6.782;2024-01-11T14:45:39;15.50;;;8.50;;
9256;SDS011;4665;51.368;6.782;2024-01-11T14:48:05;11.50;;;7.33;;
9256;SDS011;4665;51.368;6.782;2024-01-11T14:50:30;14.33;;;7.80;;